Time;durP1;ratioP1;P1;durP2;ratioP2;P2;SDS_P1;SDS_P2;PMS_P1;PMS_P2;Temp;Humidity;BMP_temperature;BMP_pressure;BME280_temperature;BME280_humidity;BME280_pressure;Samples;Min_cycle;Max_cycle;Signal;HPM_P1;HPM_P2
2023/06/30 00:00:52;;;;;;;4.85;4.35;;;19.90;99.90;;;;;;5005394;28;20041;-36
2023/06/30 00:03:18;;;;;;;6.18;5.35;;;19.90;99.90;;;;;;4976221;28;20137;-35
2023/06/30 00:05:45;;;;;;;5.47;5.00;;;20.00;99.90;;;;;;4998337;28;20471;-39
2023/06/30 00:08:11;;;;;;;6.13;5.50;;;20.00;99.90;;;;;;5000397;28;20376;-39
2023/06/30 00:10:36;;;;;;;6.43;5.22;;;20.00;99.90;;;;;;5003526;28;20065;-39
2023/06/30 00:13:02;;;;;;;5.90;5.40;;;19.80;99.90;;;;;;4992180;28;20034;-39
2023/06/30 00:15:28;;;;;;;6.63;5.30;;;19.60;99.90;;;;;;4990158;28;21978;-35
2023/06/30 00:17:53;;;;;;;6.80;5.72;;;19.70;99.90;;;;;;4989527;28;20053;-40
2023/06/30 00:20:21;;;;;;;5.70;5.13;;;19.80;99.90;;;;;;4990953;28;20029;-39
2023/06/30 00:22:46;;;;;;;5.63;4.95;;;19.80;99.90;;;;;;5003023;28;20052;-42
2023/06/30 00:25:12;;;;;;;5.30;4.65;;;19.80;99.90;;;;;;5000259;28;20026;-41
2023/06/30 00:27:38;;;;;;;5.35;4.85;;;19.80;99.90;;;;;;5000621;28;20041;-43
2023/06/30 00:30:04;;;;;;;5.30;4.80;;;19.90;99.90;;;;;;5004184;28;20113;-41
2023/06/30 00:32:31;;;;;;;5.07;4.65;;;19.80;99.90;;;;;;5003975;28;20056;-39
2023/06/30 00:34:57;;;;;;;4.97;4.53;;;19.70;99.90;;;;;;5004104;28;20030;-42
2023/06/30 00:37:23;;;;;;;5.38;4.88;;;19.70;99.90;;;;;;4989804;28;20026;-41
2023/06/30 00:39:49;;;;;;;5.60;4.45;;;19.70;99.90;;;;;;5003710;28;20754;-42
2023/06/30 00:42:16;;;;;;;6.15;4.95;;;19.70;99.90;;;;;;5003405;28;20526;-41
2023/06/30 00:44:41;;;;;;;4.88;4.38;;;19.80;99.90;;;;;;5000010;28;20026;-42
2023/06/30 00:47:07;;;;;;;5.45;4.85;;;19.80;99.90;;;;;;5003904;28;20503;-42
2023/06/30 00:49:36;;;;;;;5.35;4.85;;;19.70;99.90;;;;;;5001361;28;20017;-42
2023/06/30 00:52:04;;;;;;;6.03;4.88;;;19.80;99.90;;;;;;5001186;28;20025;-40
2023/06/30 00:54:30;;;;;;;6.35;4.97;;;19.70;99.90;;;;;;4994187;28;20033;-37
2023/06/30 00:56:58;;;;;;;5.68;5.18;;;19.60;99.90;;;;;;4989680;28;20450;-42
2023/06/30 00:59:24;;;;;;;5.68;4.65;;;19.60;99.90;;;;;;4990196;28;20046;-39
2023/06/30 01:02:00;;;;;;;5.22;4.72;;;19.60;99.90;;;;;;4992465;28;20454;-41
2023/06/30 01:04:32;;;;;;;6.68;4.60;;;19.70;99.90;;;;;;4992477;28;20040;-40
2023/06/30 01:07:14;;;;;;;5.95;5.25;;;19.70;99.90;;;;;;4993630;28;20755;-38
2023/06/30 01:09:49;;;;;;;6.20;5.20;;;19.60;99.90;;;;;;4989568;28;20595;-37
2023/06/30 01:12:15;;;;;;;5.10;4.60;;;19.50;99.90;;;;;;4993049;28;20509;-39
2023/06/30 01:14:43;;;;;;;5.05;4.53;;;19.50;99.90;;;;;;4992379;28;22457;-42
2023/06/30 01:17:09;;;;;;;5.32;4.80;;;19.50;99.90;;;;;;4989309;28;20029;-39
2023/06/30 01:19:38;;;;;;;5.07;4.68;;;19.60;99.90;;;;;;4989552;28;21699;-37
2023/06/30 01:22:14;;;;;;;5.32;4.40;;;19.60;99.90;;;;;;4989564;28;20140;-38
2023/06/30 01:24:43;;;;;;;5.38;4.88;;;19.50;99.90;;;;;;4992057;28;20091;-38
2023/06/30 01:27:12;;;;;;;5.28;4.68;;;19.50;99.90;;;;;;4989130;28;20052;-40
2023/06/30 01:29:42;;;;;;;5.65;4.75;;;19.50;99.90;;;;;;5000006;28;20510;-42
2023/06/30 01:32:08;;;;;;;5.65;4.88;;;19.50;99.90;;;;;;4998667;28;20197;-42
2023/06/30 01:34:34;;;;;;;5.07;4.57;;;19.40;99.90;;;;;;5003608;28;20032;-41
2023/06/30 01:36:59;;;;;;;5.50;5.00;;;19.20;99.90;;;;;;5002276;28;20036;-43
2023/06/30 01:39:25;;;;;;;5.43;4.88;;;19.30;99.90;;;;;;5004386;28;20526;-43
2023/06/30 01:41:51;;;;;;;5.25;4.72;;;19.30;99.90;;;;;;5000109;28;20052;-40
2023/06/30 01:44:17;;;;;;;5.25;4.60;;;19.30;99.90;;;;;;5001407;28;20037;-42
2023/06/30 01:46:44;;;;;;;5.30;4.80;;;19.20;99.90;;;;;;4999544;28;20294;-34
2023/06/30 01:49:11;;;;;;;6.78;4.95;;;19.20;99.90;;;;;;5003616;28;20040;-33
2023/06/30 01:51:36;;;;;;;6.43;5.03;;;19.20;99.90;;;;;;5000658;28;20495;-34
2023/06/30 01:54:02;;;;;;;6.22;5.30;;;19.30;99.90;;;;;;5002154;28;20058;-32
2023/06/30 01:56:28;;;;;;;6.25;5.50;;;19.30;99.90;;;;;;5001323;28;20046;-42
2023/06/30 01:58:54;;;;;;;7.70;6.53;;;19.30;99.90;;;;;;5002477;28;20056;-42
2023/06/30 02:01:19;;;;;;;6.40;5.63;;;19.30;99.90;;;;;;4996699;28;20515;-41
2023/06/30 02:03:47;;;;;;;6.13;5.60;;;19.30;99.90;;;;;;5002881;28;20069;-40
2023/06/30 02:06:13;;;;;;;6.20;5.60;;;19.20;99.90;;;;;;4999424;28;20120;-42
2023/06/30 02:08:38;;;;;;;5.85;5.28;;;19.20;99.90;;;;;;5003723;28;20507;-42
2023/06/30 02:11:04;;;;;;;5.63;5.10;;;19.20;99.90;;;;;;5000907;28;20120;-39
2023/06/30 02:13:30;;;;;;;5.55;5.05;;;19.20;99.90;;;;;;5003366;28;20041;-42
2023/06/30 02:15:55;;;;;;;4.95;4.45;;;19.30;99.90;;;;;;5002814;28;20125;-41
2023/06/30 02:18:22;;;;;;;5.30;4.80;;;19.30;99.90;;;;;;5002957;28;20448;-35
2023/06/30 02:20:47;;;;;;;6.10;4.55;;;19.30;99.90;;;;;;5001964;28;21566;-41
2023/06/30 02:23:13;;;;;;;5.22;4.70;;;19.30;99.90;;;;;;4999681;28;20065;-42
2023/06/30 02:25:39;;;;;;;6.43;5.05;;;19.30;99.90;;;;;;5001642;28;20041;-41
2023/06/30 02:28:04;;;;;;;5.93;5.32;;;19.30;99.90;;;;;;4999401;28;20069;-40
2023/06/30 02:30:30;;;;;;;5.93;4.93;;;19.20;99.90;;;;;;4999752;28;20034;-38
2023/06/30 02:32:56;;;;;;;8.00;5.25;;;19.20;99.90;;;;;;4998458;28;20052;-42
2023/06/30 02:35:22;;;;;;;5.70;4.90;;;19.20;99.90;;;;;;5005125;28;20034;-41
2023/06/30 02:37:47;;;;;;;6.32;5.28;;;19.20;99.90;;;;;;5001481;28;20061;-42
2023/06/30 02:40:13;;;;;;;5.93;5.30;;;19.20;99.90;;;;;;4999375;28;20030;-42
2023/06/30 02:42:38;;;;;;;5.40;4.85;;;19.20;99.90;;;;;;5003629;28;20375;-37
2023/06/30 02:45:05;;;;;;;5.72;5.10;;;19.10;99.90;;;;;;5007483;28;20033;-42
2023/06/30 02:47:30;;;;;;;6.20;5.60;;;19.10;99.90;;;;;;5005715;28;20494;-39
2023/06/30 02:49:56;;;;;;;6.60;5.10;;;19.10;99.90;;;;;;5003369;28;20033;-41
2023/06/30 02:52:22;;;;;;;6.10;5.50;;;19.00;99.90;;;;;;4989531;28;20148;-42
2023/06/30 02:54:47;;;;;;;6.22;5.63;;;19.00;99.90;;;;;;5004173;28;20038;-41
2023/06/30 02:57:13;;;;;;;6.55;5.60;;;18.90;99.90;;;;;;5010196;28;20045;-34
2023/06/30 02:59:38;;;;;;;7.30;5.82;;;18.90;99.90;;;;;;5001892;28;20786;-34
2023/06/30 03:02:04;;;;;;;6.28;5.57;;;18.90;99.90;;;;;;5006202;28;20064;-34
2023/06/30 03:04:30;;;;;;;6.13;5.50;;;18.90;99.90;;;;;;5006256;28;20026;-35
2023/06/30 03:06:55;;;;;;;6.85;5.65;;;18.80;99.90;;;;;;5004196;28;20037;-43
2023/06/30 03:09:21;;;;;;;8.25;6.05;;;18.80;99.90;;;;;;5005614;28;20159;-36
2023/06/30 03:11:46;;;;;;;9.50;6.45;;;18.70;99.90;;;;;;5005721;28;20030;-39
2023/06/30 03:14:12;;;;;;;11.00;6.85;;;18.70;99.90;;;;;;5008758;28;20547;-41
2023/06/30 03:16:38;;;;;;;11.10;6.85;;;18.70;99.90;;;;;;5006844;28;20435;-42
2023/06/30 03:19:03;;;;;;;10.93;7.10;;;18.80;99.90;;;;;;5004279;28;20044;-42
2023/06/30 03:21:29;;;;;;;12.65;7.35;;;18.80;99.90;;;;;;5004783;28;20109;-43
2023/06/30 03:23:54;;;;;;;9.75;7.10;;;18.80;99.90;;;;;;5006586;28;20770;-35
2023/06/30 03:26:20;;;;;;;10.80;6.63;;;18.80;99.90;;;;;;5008075;28;20034;-41
2023/06/30 03:28:45;;;;;;;9.20;6.55;;;18.80;99.90;;;;;;5005884;28;20041;-39
2023/06/30 03:31:11;;;;;;;11.75;7.07;;;18.80;99.90;;;;;;5000693;28;20101;-42
2023/06/30 03:33:36;;;;;;;8.98;6.63;;;18.80;99.90;;;;;;4998572;28;20497;-42
2023/06/30 03:36:02;;;;;;;8.82;6.97;;;18.80;99.90;;;;;;5005619;28;20033;-42
2023/06/30 03:38:28;;;;;;;9.27;6.70;;;18.80;99.90;;;;;;5006992;28;20479;-38
2023/06/30 03:40:54;;;;;;;11.93;7.10;;;18.80;99.90;;;;;;5003952;28;20038;-43
2023/06/30 03:43:22;;;;;;;9.93;7.60;;;18.80;99.90;;;;;;5005161;28;20080;-40
2023/06/30 03:45:48;;;;;;;10.95;7.85;;;18.70;99.90;;;;;;4998130;28;20125;-42
2023/06/30 03:48:14;;;;;;;9.63;7.47;;;18.40;99.90;;;;;;5006037;28;20526;-39
2023/06/30 03:50:42;;;;;;;8.75;6.78;;;18.30;99.90;;;;;;5001036;28;20088;-42
2023/06/30 03:53:08;;;;;;;8.38;7.00;;;18.40;99.90;;;;;;5001979;28;20514;-41
2023/06/30 03:55:33;;;;;;;7.70;6.90;;;18.50;99.90;;;;;;5007106;28;20034;-42
2023/06/30 03:57:59;;;;;;;8.13;6.43;;;18.50;99.90;;;;;;5002402;28;20042;-38
2023/06/30 04:00:24;;;;;;;8.10;6.55;;;18.50;99.90;;;;;;5003957;28;20073;-38
2023/06/30 04:02:50;;;;;;;7.53;6.65;;;18.50;99.90;;;;;;4999101;28;20076;-42
2023/06/30 04:05:15;;;;;;;8.23;6.63;;;18.50;99.90;;;;;;5003616;28;20026;-42
2023/06/30 04:07:41;;;;;;;11.18;6.68;;;18.50;99.90;;;;;;5003712;28;20061;-31
2023/06/30 04:10:07;;;;;;;10.40;7.13;;;18.50;99.90;;;;;;5003092;28;20535;-33
2023/06/30 04:12:33;;;;;;;9.73;7.25;;;18.50;99.90;;;;;;5002098;28;20579;-32
2023/06/30 04:14:58;;;;;;;10.77;8.02;;;18.50;99.90;;;;;;5000784;28;20042;-32
2023/06/30 04:17:24;;;;;;;9.35;7.40;;;18.50;99.90;;;;;;5008325;28;20734;-34
2023/06/30 04:19:49;;;;;;;9.93;7.88;;;18.40;99.90;;;;;;5004318;28;20487;-34
2023/06/30 04:22:15;;;;;;;14.93;7.90;;;18.30;99.90;;;;;;4987504;28;20507;-34
2023/06/30 04:24:40;;;;;;;10.48;7.45;;;18.40;99.90;;;;;;5003936;28;20026;-34
2023/06/30 04:27:06;;;;;;;11.38;7.68;;;18.60;99.90;;;;;;5003355;28;20028;-33
2023/06/30 04:29:31;;;;;;;11.13;8.02;;;18.60;99.90;;;;;;5004664;28;20431;-36
2023/06/30 04:31:57;;;;;;;11.40;7.47;;;18.60;99.90;;;;;;5000659;28;20077;-34
2023/06/30 04:34:23;;;;;;;11.68;8.27;;;18.80;99.90;;;;;;5003555;28;20025;-35
2023/06/30 04:36:51;;;;;;;11.32;8.65;;;18.80;99.90;;;;;;5004194;28;20033;-33
2023/06/30 04:39:17;;;;;;;12.48;7.72;;;18.90;99.90;;;;;;5000018;28;20076;-32
2023/06/30 04:41:42;;;;;;;12.73;8.73;;;18.90;99.90;;;;;;5003097;28;20029;-33
2023/06/30 04:44:08;;;;;;;11.00;7.57;;;19.00;99.90;;;;;;4986476;28;20024;-33
2023/06/30 04:46:33;;;;;;;14.38;8.95;;;19.00;99.90;;;;;;5000340;28;20101;-37
2023/06/30 04:49:00;;;;;;;11.75;8.05;;;19.00;99.90;;;;;;5005752;28;20471;-34
2023/06/30 04:51:26;;;;;;;12.55;7.82;;;19.10;99.90;;;;;;5003132;28;20034;-33
2023/06/30 04:53:53;;;;;;;10.40;8.10;;;19.10;99.90;;;;;;5008385;28;20129;-33
2023/06/30 04:56:19;;;;;;;13.80;8.57;;;19.10;99.90;;;;;;5002945;28;20038;-33
2023/06/30 04:58:45;;;;;;;13.38;8.85;;;19.20;99.90;;;;;;5005595;28;20080;-34
2023/06/30 05:01:10;;;;;;;13.32;9.73;;;19.20;99.90;;;;;;5002383;28;20357;-34
2023/06/30 05:03:36;;;;;;;11.52;8.82;;;19.20;99.90;;;;;;4999132;28;20060;-35
2023/06/30 05:06:02;;;;;;;11.25;7.68;;;19.20;99.90;;;;;;4987917;28;20144;-36
2023/06/30 05:08:28;;;;;;;12.70;8.80;;;19.20;99.90;;;;;;4999246;28;20392;-33
2023/06/30 05:10:53;;;;;;;12.52;8.35;;;19.10;99.90;;;;;;4999323;28;20046;-37
2023/06/30 05:13:19;;;;;;;12.02;8.48;;;19.00;99.90;;;;;;5000096;28;20506;-36
2023/06/30 05:15:44;;;;;;;13.43;9.15;;;19.00;99.90;;;;;;4998451;28;20112;-35
2023/06/30 05:18:10;;;;;;;14.55;8.88;;;19.00;99.90;;;;;;5003448;28;20026;-42
2023/06/30 05:20:39;;;;;;;17.23;10.82;;;19.00;99.90;;;;;;5001900;28;20030;-40
2023/06/30 05:23:04;;;;;;;19.23;11.18;;;19.00;99.90;;;;;;5003370;28;20041;-42
2023/06/30 05:25:30;;;;;;;16.83;10.60;;;19.00;99.90;;;;;;5004646;28;20029;-38
2023/06/30 05:27:55;;;;;;;15.73;9.75;;;18.90;99.90;;;;;;5004942;28;20112;-34
2023/06/30 05:30:21;;;;;;;16.90;10.80;;;19.00;99.90;;;;;;5004257;28;20087;-31
2023/06/30 05:32:46;;;;;;;16.00;10.23;;;19.10;99.90;;;;;;5003376;28;20058;-32
2023/06/30 05:35:12;;;;;;;16.77;10.77;;;19.10;99.90;;;;;;5003204;28;20106;-32
2023/06/30 05:37:38;;;;;;;17.10;11.15;;;19.10;99.90;;;;;;5003461;28;20030;-31
2023/06/30 05:40:04;;;;;;;19.48;11.55;;;19.20;99.90;;;;;;5001948;28;20053;-31
2023/06/30 05:42:29;;;;;;;18.55;10.95;;;19.20;99.90;;;;;;5001765;28;20057;-33
2023/06/30 05:44:55;;;;;;;22.95;12.45;;;19.30;99.90;;;;;;5004686;28;20487;-31
2023/06/30 05:47:20;;;;;;;20.25;12.35;;;19.30;99.90;;;;;;5004177;28;20475;-33
2023/06/30 05:49:46;;;;;;;21.17;13.02;;;19.40;99.90;;;;;;4999941;28;20100;-31
2023/06/30 05:52:12;;;;;;;20.63;11.70;;;19.40;99.90;;;;;;5000912;28;20029;-31
2023/06/30 05:54:37;;;;;;;20.85;12.65;;;19.40;99.90;;;;;;5003810;28;20406;-32
2023/06/30 05:57:03;;;;;;;24.33;12.32;;;19.50;99.90;;;;;;5002539;28;20039;-34
2023/06/30 05:59:30;;;;;;;23.00;13.60;;;19.50;99.90;;;;;;4987039;28;20042;-31
2023/06/30 06:01:56;;;;;;;23.52;13.02;;;19.50;99.90;;;;;;4994171;28;20045;-35
2023/06/30 06:04:22;;;;;;;20.42;12.93;;;19.60;99.90;;;;;;4991144;28;20817;-34
2023/06/30 06:06:47;;;;;;;21.38;12.07;;;19.60;99.90;;;;;;4994623;28;21043;-34
2023/06/30 06:09:13;;;;;;;20.55;12.25;;;19.60;99.90;;;;;;4999287;28;20029;-32
2023/06/30 06:11:39;;;;;;;19.88;11.65;;;19.60;99.90;;;;;;5002268;28;20088;-31
2023/06/30 06:14:05;;;;;;;21.42;12.48;;;19.70;99.90;;;;;;4998916;28;20061;-32
2023/06/30 06:16:30;;;;;;;20.13;12.50;;;19.70;99.90;;;;;;4997723;28;20037;-34
2023/06/30 06:18:56;;;;;;;21.48;12.43;;;19.70;99.90;;;;;;4989105;28;20034;-33
2023/06/30 06:21:27;;;;;;;23.33;13.38;;;19.80;99.90;;;;;;4998068;28;20496;-30
2023/06/30 06:23:53;;;;;;;22.08;13.13;;;19.80;99.90;;;;;;5003127;28;20038;-33
2023/06/30 06:26:18;;;;;;;27.90;15.40;;;19.80;99.90;;;;;;5001043;28;20503;-33
2023/06/30 06:28:44;;;;;;;27.17;14.27;;;19.80;99.90;;;;;;5002635;28;20120;-33
2023/06/30 06:31:09;;;;;;;26.52;14.55;;;19.80;99.90;;;;;;4995517;28;20038;-34
2023/06/30 06:33:35;;;;;;;26.23;13.50;;;19.90;99.90;;;;;;5002780;28;20112;-33
2023/06/30 06:36:01;;;;;;;29.50;15.77;;;19.90;99.90;;;;;;5003831;28;20080;-33
2023/06/30 06:38:27;;;;;;;27.65;14.27;;;19.90;99.90;;;;;;4997110;28;20021;-39
2023/06/30 06:40:52;;;;;;;26.85;14.82;;;20.00;99.90;;;;;;4996241;28;20722;-41
2023/06/30 06:43:18;;;;;;;29.17;15.90;;;20.00;99.90;;;;;;4997120;28;20033;-42
2023/06/30 06:45:45;;;;;;;27.73;14.65;;;20.10;99.90;;;;;;4997319;28;20077;-41
2023/06/30 06:48:21;;;;;;;29.52;15.35;;;20.10;99.90;;;;;;5001359;28;20435;-42
2023/06/30 06:50:57;;;;;;;28.15;15.07;;;20.10;99.90;;;;;;4996099;28;20037;-41
2023/06/30 06:53:28;;;;;;;26.70;15.18;;;20.20;99.90;;;;;;5001554;28;20037;-42
2023/06/30 06:55:55;;;;;;;26.55;14.73;;;20.20;99.90;;;;;;5001548;28;20166;-40
2023/06/30 06:58:21;;;;;;;31.63;16.20;;;20.20;99.90;;;;;;5003793;28;20026;-41
2023/06/30 07:00:49;;;;;;;27.30;15.15;;;20.20;99.90;;;;;;5002141;28;20034;-42
2023/06/30 07:03:15;;;;;;;25.92;14.82;;;20.20;99.90;;;;;;5001088;28;20112;-42
2023/06/30 07:05:43;;;;;;;28.45;15.63;;;20.30;99.90;;;;;;5000374;28;20392;-42
2023/06/30 07:08:10;;;;;;;32.20;15.27;;;20.30;99.90;;;;;;4998037;28;20025;-43
2023/06/30 07:10:35;;;;;;;27.92;14.98;;;20.30;99.90;;;;;;5003618;28;20026;-43
2023/06/30 07:13:02;;;;;;;26.20;15.38;;;20.30;99.90;;;;;;5001494;28;20037;-41
2023/06/30 07:15:28;;;;;;;28.55;16.27;;;20.40;99.90;;;;;;5000976;28;20034;-43
2023/06/30 07:17:54;;;;;;;30.65;15.32;;;20.40;99.90;;;;;;5001133;28;20365;-43
2023/06/30 07:20:19;;;;;;;27.75;15.32;;;20.40;99.90;;;;;;4999778;28;20026;-41
2023/06/30 07:22:45;;;;;;;29.00;15.95;;;20.40;99.90;;;;;;4994932;28;20034;-40
2023/06/30 07:25:11;;;;;;;31.73;16.95;;;20.50;99.90;;;;;;5001129;28;20026;-40
2023/06/30 07:27:38;;;;;;;28.75;15.95;;;20.50;99.90;;;;;;5002499;28;20041;-37
2023/06/30 07:30:05;;;;;;;25.27;15.00;;;20.50;99.90;;;;;;5002613;28;20582;-37
2023/06/30 07:32:32;;;;;;;29.58;15.40;;;20.60;99.90;;;;;;5005790;28;20325;-36
2023/06/30 07:34:58;;;;;;;29.50;15.37;;;20.60;99.90;;;;;;5001407;28;20618;-37
2023/06/30 07:37:23;;;;;;;27.58;14.52;;;20.70;99.90;;;;;;4999644;28;20341;-33
2023/06/30 07:39:49;;;;;;;26.17;14.82;;;20.70;99.90;;;;;;5001810;28;20021;-32
2023/06/30 07:42:15;;;;;;;25.55;15.23;;;20.60;99.90;;;;;;5002865;28;20103;-31
2023/06/30 07:44:41;;;;;;;25.00;14.50;;;20.70;99.90;;;;;;5004351;28;20160;-31
2023/06/30 07:47:06;;;;;;;26.13;14.93;;;20.70;99.90;;;;;;5001010;28;20073;-40
2023/06/30 07:49:32;;;;;;;28.52;16.20;;;20.80;99.90;;;;;;5005239;28;20029;-38
2023/06/30 07:51:58;;;;;;;29.13;15.23;;;20.90;99.90;;;;;;4997908;28;20061;-41
2023/06/30 07:54:23;;;;;;;28.45;14.63;;;20.90;99.90;;;;;;5000216;28;20033;-41
2023/06/30 07:56:49;;;;;;;30.10;15.95;;;20.80;99.90;;;;;;5007714;28;20084;-40
2023/06/30 07:59:14;;;;;;;25.85;14.68;;;20.90;99.90;;;;;;5000285;28;20046;-37
2023/06/30 08:01:40;;;;;;;27.13;15.40;;;20.80;99.90;;;;;;4999271;28;20034;-37
2023/06/30 08:04:06;;;;;;;23.25;12.25;;;20.90;99.90;;;;;;5006467;28;20018;-40
2023/06/30 08:06:31;;;;;;;24.45;13.50;;;20.70;99.90;;;;;;5001724;28;20041;-41
2023/06/30 08:08:57;;;;;;;29.08;14.10;;;20.60;99.90;;;;;;4992308;28;20038;-38
2023/06/30 08:11:23;;;;;;;25.52;14.00;;;20.60;99.90;;;;;;5004370;28;20045;-39
2023/06/30 08:13:48;;;;;;;23.33;13.60;;;20.60;99.90;;;;;;4999047;28;20420;-39
2023/06/30 08:16:15;;;;;;;24.80;12.98;;;20.60;99.90;;;;;;5001623;28;20058;-35
2023/06/30 08:18:41;;;;;;;22.17;12.57;;;20.70;99.90;;;;;;5001854;28;20030;-39
2023/06/30 08:21:06;;;;;;;19.58;11.45;;;20.60;99.90;;;;;;4999620;28;20083;-39
2023/06/30 08:23:32;;;;;;;21.27;11.23;;;20.60;99.90;;;;;;5003139;28;20030;-40
2023/06/30 08:25:58;;;;;;;20.85;11.50;;;20.60;99.90;;;;;;4999798;28;20066;-42
2023/06/30 08:28:23;;;;;;;22.52;11.30;;;20.60;99.90;;;;;;4999164;28;20027;-41
2023/06/30 08:30:50;;;;;;;20.98;11.00;;;20.60;99.90;;;;;;4978534;28;20038;-38
2023/06/30 08:33:15;;;;;;;20.35;11.15;;;20.40;99.90;;;;;;4990995;28;21798;-39
2023/06/30 08:35:41;;;;;;;21.17;11.48;;;20.40;99.90;;;;;;4994693;28;20037;-42
2023/06/30 08:38:06;;;;;;;19.75;11.18;;;20.40;99.90;;;;;;5002445;28;20357;-41
2023/06/30 08:40:32;;;;;;;18.58;10.48;;;20.40;99.90;;;;;;4999830;28;20022;-36
2023/06/30 08:43:13;;;;;;;21.02;11.68;;;20.40;99.90;;;;;;5003012;28;20491;-41
2023/06/30 08:45:42;;;;;;;20.33;11.65;;;20.40;99.90;;;;;;5002652;28;20025;-40
2023/06/30 08:48:08;;;;;;;16.98;10.30;;;20.30;99.90;;;;;;5001845;28;20080;-41
2023/06/30 08:50:35;;;;;;;18.95;10.95;;;20.30;99.90;;;;;;5002376;28;20038;-41
2023/06/30 08:53:02;;;;;;;18.98;10.77;;;20.20;99.90;;;;;;4999768;28;20549;-41
2023/06/30 08:55:28;;;;;;;21.50;11.02;;;20.20;99.90;;;;;;5000709;28;20081;-41
2023/06/30 08:57:57;;;;;;;18.63;10.35;;;20.20;99.90;;;;;;5001190;28;20030;-42
2023/06/30 09:00:24;;;;;;;21.60;11.30;;;20.20;99.90;;;;;;4985413;28;20034;-38
2023/06/30 09:02:50;;;;;;;19.25;10.77;;;20.10;99.90;;;;;;4996711;28;20026;-39
2023/06/30 09:05:16;;;;;;;19.15;10.43;;;20.10;99.90;;;;;;5004224;28;20581;-42
2023/06/30 09:07:49;;;;;;;20.15;10.48;;;20.00;99.90;;;;;;5001396;28;20584;-39
2023/06/30 09:10:15;;;;;;;20.30;10.25;;;20.00;99.90;;;;;;4999466;28;20035;-38
2023/06/30 09:12:43;;;;;;;17.52;10.43;;;20.00;99.90;;;;;;5003478;28;20062;-42
2023/06/30 09:15:09;;;;;;;;;;;20.00;99.90;;;;;;5003754;28;20025;-41
2023/06/30 09:17:35;;;;;;;17.38;9.52;;;20.00;99.90;;;;;;5001626;28;20294;-41
2023/06/30 09:20:01;;;;;;;18.85;10.38;;;20.00;99.90;;;;;;5000133;28;20249;-38
2023/06/30 09:22:26;;;;;;;21.88;10.20;;;20.00;99.90;;;;;;5002995;28;20110;-40
2023/06/30 09:24:53;;;;;;;21.17;10.90;;;20.00;99.90;;;;;;5000485;28;20070;-39
2023/06/30 09:27:18;;;;;;;20.70;10.95;;;19.90;99.90;;;;;;5001836;28;20033;-41
2023/06/30 09:29:57;;;;;;;18.10;10.07;;;19.80;99.90;;;;;;4984394;28;20497;-40
2023/06/30 09:32:30;;;;;;;18.08;9.80;;;19.80;99.90;;;;;;5001344;28;20034;-41
2023/06/30 09:34:55;;;;;;;18.77;9.75;;;19.80;99.90;;;;;;5003980;28;20582;-38
2023/06/30 09:37:21;;;;;;;17.77;9.38;;;19.80;99.90;;;;;;5006908;28;20034;-42
2023/06/30 09:39:51;;;;;;;17.92;9.23;;;19.80;99.90;;;;;;5005985;28;20034;-42
2023/06/30 09:42:20;;;;;;;16.42;9.55;;;19.80;99.90;;;;;;5004593;28;20037;-42
2023/06/30 09:44:46;;;;;;;17.13;9.23;;;19.90;99.90;;;;;;5003182;28;20030;-40
2023/06/30 09:47:12;;;;;;;17.08;9.25;;;20.00;99.90;;;;;;5000848;28;20384;-41
2023/06/30 09:49:39;;;;;;;17.25;9.40;;;20.00;99.90;;;;;;5002243;28;20101;-42
2023/06/30 09:52:06;;;;;;;15.38;8.98;;;19.90;99.90;;;;;;5002121;28;20041;-42
2023/06/30 09:54:33;;;;;;;17.88;8.93;;;19.90;99.90;;;;;;4998333;28;20030;-42
2023/06/30 09:57:08;;;;;;;18.70;9.30;;;20.00;99.90;;;;;;5000997;28;20038;-41
2023/06/30 09:59:33;;;;;;;16.90;9.65;;;20.10;99.90;;;;;;5000981;28;20426;-40
2023/06/30 10:01:59;;;;;;;15.82;9.15;;;20.00;99.90;;;;;;4997063;28;20034;-42
2023/06/30 10:04:28;;;;;;;17.55;9.40;;;20.00;99.90;;;;;;4999139;28;20101;-38
2023/06/30 10:06:54;;;;;;;16.75;9.10;;;20.10;99.90;;;;;;4998031;28;20038;-32
2023/06/30 10:09:23;;;;;;;18.50;9.85;;;20.20;99.90;;;;;;5003770;28;20026;-33
2023/06/30 10:11:51;;;;;;;16.35;9.38;;;20.20;99.90;;;;;;5001912;28;20056;-32
2023/06/30 10:14:21;;;;;;;;;;;20.30;99.90;;;;;;4998206;28;20045;-37
2023/06/30 10:16:48;;;;;;;18.15;9.60;;;20.30;99.90;;;;;;5001693;28;20425;-33
2023/06/30 10:19:14;;;;;;;19.38;10.02;;;20.30;99.90;;;;;;4999355;28;20030;-34
2023/06/30 10:21:41;;;;;;;17.77;10.73;;;20.40;99.90;;;;;;5001121;28;20034;-38
2023/06/30 10:24:08;;;;;;;15.68;10.05;;;20.50;99.90;;;;;;4996121;28;20105;-33
2023/06/30 10:26:36;;;;;;;20.15;11.00;;;20.60;99.90;;;;;;5000494;28;20088;-35
2023/06/30 10:29:02;;;;;;;19.10;10.63;;;20.60;99.90;;;;;;5001059;28;20045;-34
2023/06/30 10:31:52;;;;;;;20.33;11.32;;;20.70;99.90;;;;;;4992869;28;20424;-37
2023/06/30 10:34:24;;;;;;;19.38;11.02;;;20.60;99.90;;;;;;4997057;28;20126;-35
2023/06/30 10:36:50;;;;;;;20.90;11.77;;;20.70;99.90;;;;;;4992392;28;20077;-34
2023/06/30 10:39:16;;;;;;;19.15;10.80;;;20.70;99.90;;;;;;4998414;28;20023;-32
2023/06/30 10:41:49;;;;;;;20.92;11.55;;;20.80;99.90;;;;;;5001796;28;20037;-32
2023/06/30 10:44:15;;;;;;;22.13;12.25;;;20.90;99.90;;;;;;4995681;28;20037;-34
2023/06/30 10:46:41;;;;;;;20.55;11.52;;;20.90;99.90;;;;;;4999406;28;20041;-33
2023/06/30 10:49:07;;;;;;;20.52;11.48;;;20.80;99.90;;;;;;5000329;28;21472;-33
2023/06/30 10:51:36;;;;;;;20.70;11.63;;;20.90;99.90;;;;;;5000042;28;20034;-33
2023/06/30 10:54:02;;;;;;;22.95;12.45;;;21.00;99.90;;;;;;5001612;28;20042;-33
2023/06/30 10:56:29;;;;;;;18.73;10.35;;;20.90;99.90;;;;;;4993217;28;20030;-34
2023/06/30 10:58:58;;;;;;;20.40;11.52;;;21.10;99.90;;;;;;5002280;28;20038;-34
2023/06/30 11:01:26;;;;;;;20.70;11.95;;;21.20;99.90;;;;;;4992985;28;20504;-34
2023/06/30 11:03:55;;;;;;;;;;;21.40;99.90;;;;;;5002446;28;20080;-37
2023/06/30 11:06:21;;;;;;;18.70;10.85;;;21.50;99.90;;;;;;5004199;28;19939;-34
2023/06/30 11:09:00;;;;;;;20.67;11.43;;;21.70;99.90;;;;;;5000397;28;20089;-39
2023/06/30 11:11:28;;;;;;;21.52;11.07;;;21.80;99.90;;;;;;4998904;28;20037;-40
2023/06/30 11:14:06;;;;;;;20.70;12.07;;;21.80;99.90;;;;;;5006219;28;20060;-39
2023/06/30 11:17:06;;;;;;;20.85;12.18;;;21.80;99.90;;;;;;5005002;28;20036;-41
2023/06/30 11:19:34;;;;;;;19.55;11.30;;;21.80;99.90;;;;;;4996231;28;20041;-40
2023/06/30 11:22:23;;;;;;;20.00;12.40;;;21.90;99.90;;;;;;5001406;28;20026;-40
2023/06/30 11:24:49;;;;;;;20.95;12.38;;;22.00;99.90;;;;;;5003114;28;20025;-40
2023/06/30 11:27:15;;;;;;;19.73;12.00;;;22.10;99.90;;;;;;5004146;28;20036;-40
2023/06/30 11:29:41;;;;;;;20.58;11.55;;;22.30;99.90;;;;;;5002458;28;20495;-39
2023/06/30 11:32:07;;;;;;;22.63;12.55;;;22.30;99.90;;;;;;5001899;28;20129;-40
2023/06/30 11:34:33;;;;;;;20.95;12.43;;;22.20;99.90;;;;;;5002994;28;20118;-41
2023/06/30 11:37:05;;;;;;;18.65;11.55;;;22.10;99.90;;;;;;5003990;28;20041;-39
2023/06/30 11:39:30;;;;;;;20.30;12.05;;;22.20;99.90;;;;;;5002286;28;20774;-39
2023/06/30 11:41:56;;;;;;;18.23;11.85;;;22.30;99.90;;;;;;4999807;28;20026;-39
2023/06/30 11:44:22;;;;;;;20.98;11.93;;;22.10;99.90;;;;;;5004020;28;20025;-40
2023/06/30 11:46:47;;;;;;;19.92;12.88;;;22.20;99.90;;;;;;5005916;28;20030;-39
2023/06/30 11:49:13;;;;;;;21.55;12.15;;;22.20;99.90;;;;;;5004866;28;20032;-41
2023/06/30 11:51:39;;;;;;;19.42;12.88;;;22.30;99.90;;;;;;5006822;28;20471;-37
2023/06/30 11:54:06;;;;;;;20.35;12.70;;;22.30;99.90;;;;;;5003269;28;20033;-39
2023/06/30 11:56:38;;;;;;;17.60;11.43;;;22.30;99.90;;;;;;5001022;28;20277;-38
2023/06/30 11:59:05;;;;;;;20.08;12.20;;;22.40;99.90;;;;;;5002698;28;20443;-38
2023/06/30 12:01:30;;;;;;;21.08;11.80;;;22.50;99.90;;;;;;5001556;28;20026;-41
2023/06/30 12:04:06;;;;;;;21.10;12.50;;;22.60;99.90;;;;;;5001544;28;20031;-38
2023/06/30 12:06:32;;;;;;;19.70;12.23;;;22.70;99.90;;;;;;4999408;28;20034;-34
2023/06/30 12:08:57;;;;;;;19.17;11.90;;;22.60;99.90;;;;;;5001965;28;20064;-39
2023/06/30 12:11:23;;;;;;;17.20;11.27;;;22.60;99.90;;;;;;4999800;28;20407;-41
2023/06/30 12:13:50;;;;;;;19.95;11.85;;;22.70;99.90;;;;;;5001121;28;20030;-41
2023/06/30 12:16:15;;;;;;;19.40;11.93;;;22.60;99.90;;;;;;5000400;28;20026;-41
2023/06/30 12:18:44;;;;;;;19.52;12.10;;;22.70;99.90;;;;;;5005355;28;20030;-33
2023/06/30 12:21:12;;;;;;;23.02;13.65;;;22.80;99.90;;;;;;5006111;28;20032;-34
2023/06/30 12:23:45;;;;;;;19.67;13.00;;;22.80;99.90;;;;;;5005105;28;20037;-31
2023/06/30 12:26:11;;;;;;;21.35;13.07;;;22.70;99.90;;;;;;5003537;28;20044;-35
2023/06/30 12:28:38;;;;;;;20.88;12.32;;;22.50;99.90;;;;;;5004725;28;20061;-31
2023/06/30 12:31:03;;;;;;;16.98;10.82;;;22.50;99.90;;;;;;5004146;28;20092;-35
2023/06/30 12:33:29;;;;;;;16.63;10.63;;;21.80;99.90;;;;;;5003064;28;20030;-31